Time;durP1;ratioP1;P1;durP2;ratioP2;P2;SDS_P1;SDS_P2;PMS_P1;PMS_P2;Temp;Humidity;BMP_temperature;BMP_pressure;BME280_temperature;BME280_humidity;BME280_pressure;Samples;Min_cycle;Max_cycle;Signal;HPM_P1;HPM_P2
2022/04/22 00:01:46;;;;;;;5.18;2.35;;;17.90;46.80;;;;;;6233375;22;20011;-95
2022/04/22 00:04:14;;;;;;;3.58;2.05;;;17.90;46.80;;;;;;6234210;22;20018;-96
2022/04/22 00:06:42;;;;;;;5.47;2.47;;;17.90;46.80;;;;;;6258384;22;20008;-96
2022/04/22 00:09:08;;;;;;;3.78;2.28;;;17.90;46.90;;;;;;6205377;22;20008;-94
2022/04/22 00:11:34;;;;;;;6.00;2.28;;;17.80;47.50;;;;;;6208011;22;20007;-94
2022/04/22 00:14:05;;;;;;;3.53;2.00;;;17.80;47.00;;;;;;6230265;22;20067;-94
2022/04/22 00:16:38;;;;;;;3.75;1.80;;;17.80;47.00;;;;;;6232555;22;20094;-96
2022/04/22 00:19:04;;;;;;;4.23;1.93;;;17.70;46.90;;;;;;6267696;22;20034;-96
2022/04/22 00:21:35;;;;;;;4.60;1.73;;;17.70;47.00;;;;;;6231531;22;20004;-95
2022/04/22 00:24:05;;;;;;;6.28;2.03;;;17.60;46.80;;;;;;6231802;22;20007;-94
2022/04/22 00:26:31;;;;;;;4.28;2.38;;;17.60;46.90;;;;;;6258109;22;20012;-96
2022/04/22 00:28:59;;;;;;;3.85;2.03;;;17.60;46.90;;;;;;6250531;22;20004;-94
2022/04/22 00:31:32;;;;;;;5.13;2.13;;;17.50;47.00;;;;;;6174600;23;20007;-93
2022/04/22 00:34:02;;;;;;;3.75;2.15;;;17.50;47.00;;;;;;6073550;23;20017;-94
2022/04/22 00:36:28;;;;;;;4.88;1.90;;;17.40;47.00;;;;;;6177189;23;20023;-92
2022/04/22 00:39:01;;;;;;;5.70;2.00;;;17.30;47.20;;;;;;6179980;23;20049;-95
2022/04/22 00:41:37;;;;;;;4.35;1.80;;;17.30;47.20;;;;;;6028307;23;20504;-92
2022/04/22 00:44:03;;;;;;;4.25;1.77;;;17.30;47.20;;;;;;6072711;23;20657;-96
2022/04/22 00:46:29;;;;;;;6.85;2.10;;;17.30;47.30;;;;;;6160623;23;20069;-91
2022/04/22 00:48:55;;;;;;;3.08;1.85;;;17.30;47.40;;;;;;6136023;23;20014;-96
2022/04/22 00:51:22;;;;;;;4.00;2.28;;;17.30;47.30;;;;;;6157024;23;20023;-96
2022/04/22 00:53:51;;;;;;;5.43;1.98;;;17.20;47.30;;;;;;6157966;23;20018;-94
2022/04/22 00:56:18;;;;;;;4.25;1.90;;;17.20;47.20;;;;;;6128355;23;20034;-93
2022/04/22 00:58:47;;;;;;;4.25;1.85;;;17.20;47.30;;;;;;6031465;23;20026;-95
2022/04/22 01:01:13;;;;;;;3.85;2.17;;;17.20;47.20;;;;;;6156777;23;20023;-96
2022/04/22 01:03:39;;;;;;;3.95;1.73;;;17.20;47.30;;;;;;6030623;23;20378;-93
2022/04/22 01:11:37;;;;;;;5.88;2.28;;;17.10;47.30;;;;;;6055867;23;20065;-95
2022/04/22 01:14:07;;;;;;;5.10;2.20;;;17.00;47.30;;;;;;6008060;23;20010;-95
2022/04/22 01:16:34;;;;;;;5.13;2.03;;;17.00;47.40;;;;;;6152959;23;20449;-92
2022/04/22 01:19:00;;;;;;;6.03;1.88;;;17.00;47.40;;;;;;6031980;23;20015;-91
2022/04/22 01:21:26;;;;;;;6.53;2.40;;;17.00;47.50;;;;;;6153447;23;20541;-93
2022/04/22 01:23:51;;;;;;;5.00;2.17;;;17.00;47.50;;;;;;6064704;22;20017;-95
2022/04/22 01:26:17;;;;;;;4.05;2.22;;;17.00;47.60;;;;;;6088049;22;20022;-96
2022/04/22 01:28:43;;;;;;;4.57;2.05;;;16.90;47.50;;;;;;6087472;22;20326;-94
2022/04/22 01:31:09;;;;;;;3.22;1.77;;;16.90;47.50;;;;;;6087181;22;20448;-96
2022/04/22 01:33:35;;;;;;;4.43;1.95;;;16.90;47.60;;;;;;6241092;22;20005;-95
2022/04/22 01:36:01;;;;;;;3.63;1.85;;;16.90;47.60;;;;;;6063350;23;20021;-92
2022/04/22 01:38:27;;;;;;;3.78;1.73;;;16.90;47.70;;;;;;6094439;23;20451;-95
2022/04/22 01:40:54;;;;;;;5.20;2.17;;;16.90;47.70;;;;;;6090099;23;20041;-95
2022/04/22 01:43:21;;;;;;;3.83;1.92;;;16.90;47.80;;;;;;6090437;22;20349;-96
2022/04/22 01:45:47;;;;;;;5.07;2.10;;;16.80;47.70;;;;;;6093331;22;20017;-96
2022/04/22 01:48:12;;;;;;;3.65;2.00;;;16.80;47.90;;;;;;6102404;22;20028;-96
2022/04/22 01:50:39;;;;;;;6.18;2.20;;;16.80;47.90;;;;;;6101863;22;20044;-95
2022/04/22 01:53:06;;;;;;;5.35;2.13;;;16.80;48.00;;;;;;6101925;23;20096;-96
2022/04/22 01:55:35;;;;;;;4.10;2.08;;;16.80;48.00;;;;;;6104537;22;20021;-96
2022/04/22 01:58:03;;;;;;;4.47;2.38;;;16.70;47.90;;;;;;6104856;22;20110;-92
2022/04/22 02:00:32;;;;;;;4.05;2.13;;;16.70;48.00;;;;;;6102899;23;20097;-92
2022/04/22 02:02:58;;;;;;;5.07;2.40;;;16.70;48.10;;;;;;6103306;23;20523;-96
2022/04/22 02:05:24;;;;;;;4.05;1.88;;;16.70;48.40;;;;;;6107092;22;20022;-95
2022/04/22 02:07:50;;;;;;;4.30;2.42;;;16.70;48.70;;;;;;6099640;22;20500;-96
2022/04/22 02:10:16;;;;;;;6.82;2.63;;;16.60;48.70;;;;;;6124492;22;20009;-96
2022/04/22 02:12:42;;;;;;;6.25;2.47;;;16.70;48.80;;;;;;6099617;22;20010;-96
2022/04/22 02:15:08;;;;;;;7.00;2.40;;;16.60;48.90;;;;;;6101401;22;20006;-93
2022/04/22 02:17:34;;;;;;;5.85;2.00;;;16.50;48.70;;;;;;6124062;22;20002;-95
2022/04/22 02:20:01;;;;;;;4.70;2.40;;;16.50;49.00;;;;;;6104759;23;20014;-94
2022/04/22 02:22:29;;;;;;;5.13;1.85;;;16.10;48.90;;;;;;6102384;22;20016;-96
2022/04/22 02:24:57;;;;;;;6.72;2.22;;;16.50;48.70;;;;;;6101880;22;20009;-96
2022/04/22 02:30:09;;;;;;;3.92;2.30;;;16.40;49.10;;;;;;6126944;22;20059;-96
2022/04/22 02:32:35;;;;;;;3.88;2.35;;;16.40;49.00;;;;;;6099567;23;20089;-96
2022/04/22 02:35:02;;;;;;;6.45;2.22;;;16.40;49.30;;;;;;6077607;23;20014;-93
2022/04/22 02:37:28;;;;;;;3.78;1.83;;;16.60;49.40;;;;;;6077589;22;20005;-96
2022/04/22 02:39:54;;;;;;;3.53;1.90;;;16.00;49.20;;;;;;6123705;22;20498;-96
2022/04/22 02:47:51;;;;;;;4.72;2.05;;;16.30;49.10;;;;;;6110895;23;20020;-96
2022/04/22 02:50:18;;;;;;;3.63;2.17;;;16.20;49.40;;;;;;6102260;22;20020;-95
2022/04/22 02:52:44;;;;;;;3.47;2.00;;;16.20;49.20;;;;;;6101344;22;20014;-95
2022/04/22 02:55:11;;;;;;;2.97;1.95;;;16.20;49.50;;;;;;6131956;22;20004;-95
2022/04/22 02:57:38;;;;;;;5.15;2.10;;;16.10;49.20;;;;;;6178668;22;20022;-95
2022/04/22 03:00:06;;;;;;;6.53;2.10;;;16.20;49.30;;;;;;6128482;22;20016;-95
2022/04/22 03:02:32;;;;;;;3.53;2.20;;;16.10;49.40;;;;;;6083544;23;20069;-94
2022/04/22 03:04:59;;;;;;;4.25;2.20;;;16.10;49.70;;;;;;6103121;22;20013;-93
2022/04/22 03:07:26;;;;;;;5.25;2.20;;;16.10;49.90;;;;;;6108715;22;20097;-94
2022/04/22 03:09:52;;;;;;;3.97;1.80;;;16.00;49.30;;;;;;6093191;22;20492;-92
2022/04/22 03:12:18;;;;;;;7.07;2.13;;;16.00;49.60;;;;;;6089303;23;20013;-96
2022/04/22 03:14:44;;;;;;;3.22;2.03;;;16.00;49.60;;;;;;6088185;22;20017;-95
2022/04/22 03:17:09;;;;;;;4.07;2.20;;;16.00;49.80;;;;;;6086588;22;20488;-94
2022/04/22 03:19:36;;;;;;;4.03;1.92;;;16.10;49.80;;;;;;6086792;22;20010;-90
2022/04/22 03:22:02;;;;;;;4.43;2.20;;;16.00;49.90;;;;;;6088219;23;20009;-95
2022/04/22 03:24:28;;;;;;;5.38;2.45;;;16.00;49.50;;;;;;6241703;22;20397;-96
2022/04/22 03:26:54;;;;;;;4.10;2.03;;;16.00;49.70;;;;;;6085465;22;20457;-94
2022/04/22 03:29:19;;;;;;;5.15;2.00;;;16.00;49.80;;;;;;6086280;22;20013;-94
2022/04/22 03:31:45;;;;;;;3.20;2.17;;;16.10;49.80;;;;;;6087811;22;20013;-93
2022/04/22 03:34:11;;;;;;;3.65;2.00;;;16.10;49.80;;;;;;6092547;22;20428;-96
2022/04/22 03:36:37;;;;;;;4.68;2.28;;;16.30;49.90;;;;;;6092458;22;20100;-91
2022/04/22 03:39:02;;;;;;;4.55;2.25;;;16.00;49.90;;;;;;6096987;23;20254;-94
2022/04/22 03:41:28;;;;;;;3.97;2.33;;;16.10;49.90;;;;;;6066927;22;20025;-95
2022/04/22 03:43:55;;;;;;;3.45;1.98;;;16.00;49.90;;;;;;6092497;23;20009;-96
2022/04/22 03:46:21;;;;;;;6.63;2.28;;;16.00;49.80;;;;;;6092009;22;20021;-95
2022/04/22 03:48:47;;;;;;;3.58;2.25;;;15.90;49.70;;;;;;6091751;22;20085;-96
2022/04/22 03:51:13;;;;;;;5.32;2.50;;;16.00;49.90;;;;;;6088968;22;20515;-92
2022/04/22 03:53:40;;;;;;;5.22;2.10;;;16.00;49.90;;;;;;6091860;22;20005;-94
2022/04/22 03:58:51;;;;;;;6.70;2.17;;;15.90;49.70;;;;;;6119725;22;20079;-95
2022/04/22 04:01:16;;;;;;;4.18;2.35;;;16.00;49.70;;;;;;6090106;22;20021;-96
2022/04/22 04:03:43;;;;;;;5.90;2.40;;;16.00;49.80;;;;;;6090762;22;20452;-92
2022/04/22 04:06:09;;;;;;;4.65;2.10;;;15.80;49.80;;;;;;6091152;23;20025;-96
2022/04/22 04:08:34;;;;;;;3.97;2.17;;;15.80;49.70;;;;;;6090530;23;20009;-95
2022/04/22 04:16:49;;;;;;;11.90;2.50;;;15.80;49.80;;;;;;6151947;23;20108;-96
2022/04/22 04:24:47;;;;;;;8.20;2.13;;;15.70;49.60;;;;;;6117432;22;20024;-96
2022/04/22 04:27:13;;;;;;;7.07;2.00;;;15.40;49.50;;;;;;6131220;22;20261;-96
2022/04/22 04:29:39;;;;;;;4.57;2.25;;;15.60;49.70;;;;;;6129634;22;20001;-93
2022/04/22 04:32:06;;;;;;;4.45;1.90;;;15.60;49.90;;;;;;6104412;23;20515;-96
2022/04/22 04:34:32;;;;;;;3.53;2.00;;;15.60;49.80;;;;;;6106127;22;20009;-92
2022/04/22 04:36:58;;;;;;;4.82;1.92;;;15.60;49.90;;;;;;6102042;23;20041;-93
2022/04/22 04:39:24;;;;;;;7.28;2.30;;;15.60;49.80;;;;;;6129560;22;20009;-96
2022/04/22 04:41:50;;;;;;;3.45;1.85;;;15.60;49.90;;;;;;6128001;22;20044;-95
2022/04/22 04:44:16;;;;;;;5.30;1.70;;;15.60;49.90;;;;;;6128297;22;20055;-96
2022/04/22 04:46:41;;;;;;;5.57;2.22;;;15.60;49.90;;;;;;6103749;23;20029;-96
2022/04/22 04:49:07;;;;;;;3.42;1.88;;;15.60;50.00;;;;;;6104987;23;20464;-92
2022/04/22 04:51:33;;;;;;;3.22;2.00;;;15.60;50.20;;;;;;6100259;22;20009;-95
2022/04/22 04:53:59;;;;;;;3.00;2.00;;;15.30;50.40;;;;;;6099977;22;19998;-94
2022/04/22 04:56:25;;;;;;;3.47;2.03;;;15.60;50.50;;;;;;6099741;22;20013;-96
2022/04/22 04:58:51;;;;;;;4.13;2.33;;;15.60;50.70;;;;;;6095264;23;20101;-96
2022/04/22 05:01:18;;;;;;;3.42;1.98;;;15.60;50.70;;;;;;6095323;22;20025;-96
2022/04/22 05:03:44;;;;;;;5.55;3.10;;;15.60;50.80;;;;;;6070743;23;20010;-94
2022/04/22 05:06:12;;;;;;;5.05;2.40;;;15.60;50.80;;;;;;6096752;23;20073;-96
2022/04/22 05:08:38;;;;;;;4.53;2.75;;;15.60;50.90;;;;;;6100580;23;20057;-95
2022/04/22 05:11:04;;;;;;;5.40;2.40;;;15.60;50.90;;;;;;6228053;22;20033;-93
2022/04/22 05:13:30;;;;;;;7.40;2.33;;;15.60;51.00;;;;;;6102403;22;20009;-96
2022/04/22 05:15:57;;;;;;;5.65;2.55;;;15.50;51.00;;;;;;6097689;22;20021;-96
2022/04/22 05:18:23;;;;;;;6.97;2.67;;;15.60;51.30;;;;;;6097526;22;20014;-93
2022/04/22 05:20:51;;;;;;;5.78;2.22;;;15.60;51.20;;;;;;6093412;22;20018;-96
2022/04/22 05:23:17;;;;;;;7.10;2.42;;;15.60;51.30;;;;;;6096072;22;20056;-96
2022/04/22 05:25:43;;;;;;;6.63;3.25;;;15.60;51.50;;;;;;6094620;23;20018;-92
2022/04/22 05:28:09;;;;;;;4.55;2.40;;;15.50;51.60;;;;;;6098925;23;20061;-93
2022/04/22 05:33:19;;;;;;;86.30;8.23;;;15.40;51.60;;;;;;6101016;22;20020;-96
2022/04/22 05:35:45;;;;;;;3.63;2.50;;;15.50;51.70;;;;;;6071795;22;20018;-95
2022/04/22 05:38:14;;;;;;;5.28;2.45;;;15.40;51.80;;;;;;6095319;23;20065;-92
2022/04/22 05:40:42;;;;;;;6.68;2.45;;;15.10;51.80;;;;;;6222933;22;20484;-96
2022/04/22 05:43:09;;;;;;;5.40;2.40;;;15.40;51.70;;;;;;6099618;23;20010;-96
2022/04/22 05:45:39;;;;;;;5.28;2.65;;;15.30;52.00;;;;;;6091953;22;20022;-96
2022/04/22 05:48:06;;;;;;;4.38;2.47;;;15.60;52.30;;;;;;6224112;22;20009;-96
2022/04/22 05:50:32;;;;;;;6.07;2.50;;;15.30;52.10;;;;;;6095058;23;20616;-96
2022/04/22 05:52:58;;;;;;;11.13;2.92;;;15.30;53.00;;;;;;6098631;22;20472;-96
2022/04/22 05:55:30;;;;;;;4.75;2.90;;;15.10;52.40;;;;;;6095289;22;20018;-96
2022/04/22 05:57:57;;;;;;;5.72;2.30;;;15.30;52.30;;;;;;6092609;22;20455;-95
2022/04/22 06:00:26;;;;;;;6.15;2.80;;;15.30;52.50;;;;;;6065803;22;20018;-95
2022/04/22 06:02:53;;;;;;;5.40;2.50;;;15.30;52.80;;;;;;6063909;22;20025;-96
2022/04/22 06:05:20;;;;;;;8.48;3.05;;;15.30;53.00;;;;;;6064829;22;20381;-96
2022/04/22 06:07:47;;;;;;;5.30;2.53;;;15.20;53.00;;;;;;6090130;22;20017;-95
2022/04/22 06:10:32;;;;;;;8.35;2.88;;;15.30;53.40;;;;;;6061902;23;20009;-95
2022/04/22 06:13:02;;;;;;;4.60;2.58;;;15.20;53.70;;;;;;6067849;22;20445;-93
2022/04/22 06:15:28;;;;;;;4.63;2.80;;;15.10;53.60;;;;;;6084290;23;20014;-95
2022/04/22 06:17:55;;;;;;;4.93;2.75;;;15.10;53.90;;;;;;6086761;22;20021;-94
2022/04/22 06:20:21;;;;;;;5.40;2.45;;;15.20;53.90;;;;;;6061936;22;20037;-94
2022/04/22 06:22:47;;;;;;;5.63;2.85;;;15.20;54.10;;;;;;6064679;23;20020;-92
2022/04/22 06:25:13;;;;;;;5.00;3.03;;;15.20;54.30;;;;;;6085295;23;20009;-93
2022/04/22 06:27:42;;;;;;;4.40;2.45;;;15.20;54.50;;;;;;6086086;22;20196;-95
2022/04/22 06:30:13;;;;;;;8.75;2.90;;;15.30;54.30;;;;;;6063597;22;20016;-95
2022/04/22 06:32:42;;;;;;;7.22;3.55;;;15.20;54.40;;;;;;6088452;22;20013;-95
2022/04/22 06:35:10;;;;;;;4.70;2.83;;;15.20;54.60;;;;;;6086322;22;20041;-96
2022/04/22 06:37:42;;;;;;;5.28;3.10;;;15.20;54.90;;;;;;6062930;22;20009;-94
2022/04/22 06:45:47;;;;;;;4.60;3.17;;;15.20;55.10;;;;;;6087866;22;20025;-95
2022/04/22 06:48:17;;;;;;;5.95;3.03;;;15.20;55.30;;;;;;6063098;23;20253;-96
2022/04/22 06:50:48;;;;;;;6.90;3.28;;;15.20;55.40;;;;;;6109924;22;20022;-96
2022/04/22 06:53:18;;;;;;;5.22;2.60;;;15.20;55.70;;;;;;6064287;23;20010;-95
2022/04/22 06:55:46;;;;;;;5.30;2.83;;;15.10;55.70;;;;;;6085515;23;20041;-96
2022/04/22 06:58:15;;;;;;;7.03;3.22;;;15.20;55.90;;;;;;6087402;22;20010;-94
2022/04/22 07:00:42;;;;;;;4.60;2.60;;;15.10;55.80;;;;;;6062577;22;20021;-96
2022/04/22 07:03:09;;;;;;;9.05;3.03;;;15.20;56.00;;;;;;6063959;23;20116;-96
2022/04/22 07:05:37;;;;;;;6.65;2.75;;;15.20;56.20;;;;;;6086419;23;20022;-94
2022/04/22 07:08:06;;;;;;;5.70;3.00;;;15.10;56.20;;;;;;6090771;23;20069;-93
2022/04/22 07:10:33;;;;;;;5.25;2.90;;;15.20;56.20;;;;;;6063422;22;20455;-94
2022/04/22 07:13:00;;;;;;;5.80;2.65;;;15.20;56.20;;;;;;6088490;22;20006;-95
2022/04/22 07:15:26;;;;;;;4.95;2.97;;;15.20;56.20;;;;;;6085720;22;20499;-95
2022/04/22 07:17:53;;;;;;;8.13;3.78;;;15.20;55.90;;;;;;6084877;23;20010;-96
2022/04/22 07:20:19;;;;;;;4.82;2.55;;;15.30;55.80;;;;;;6062432;22;20441;-91
2022/04/22 07:22:46;;;;;;;5.18;3.40;;;15.30;55.60;;;;;;6064500;23;20101;-95
2022/04/22 07:25:14;;;;;;;8.65;3.75;;;15.30;55.90;;;;;;6086636;22;20038;-94
2022/04/22 07:27:42;;;;;;;5.38;3.00;;;15.30;55.90;;;;;;6084313;22;20099;-93
2022/04/22 07:30:14;;;;;;;8.48;3.55;;;15.30;56.10;;;;;;6062101;23;20465;-94
2022/04/22 07:32:41;;;;;;;6.43;3.88;;;15.30;55.90;;;;;;6062713;22;20038;-94
2022/04/22 07:35:12;;;;;;;4.63;3.05;;;15.30;56.00;;;;;;6063404;22;20065;-95
2022/04/22 07:37:39;;;;;;;10.35;3.28;;;15.30;56.30;;;;;;6065034;23;20021;-95
2022/04/22 07:40:06;;;;;;;9.38;3.53;;;15.30;55.70;;;;;;6063742;23;20515;-94
2022/04/22 07:42:36;;;;;;;6.25;3.42;;;15.30;55.40;;;;;;6062480;22;20010;-94
2022/04/22 07:47:51;;;;;;;8.25;4.03;;;15.40;55.50;;;;;;6090841;22;20025;-94
2022/04/22 07:50:18;;;;;;;4.43;3.10;;;15.40;55.50;;;;;;6066040;23;20002;-96
2022/04/22 07:52:45;;;;;;;5.90;3.63;;;15.40;55.40;;;;;;6087750;22;20478;-95
2022/04/22 07:55:13;;;;;;;7.63;3.20;;;15.90;55.50;;;;;;6061752;22;20056;-96
2022/04/22 07:57:43;;;;;;;10.07;3.90;;;15.50;55.00;;;;;;6086828;22;20088;-95
2022/04/22 08:00:10;;;;;;;9.93;4.47;;;15.40;55.10;;;;;;6063039;22;20006;-92
2022/04/22 08:02:40;;;;;;;6.15;3.40;;;15.50;54.90;;;;;;6086945;22;20191;-93
2022/04/22 08:05:11;;;;;;;5.18;3.10;;;15.50;55.00;;;;;;6087378;23;20014;-94
2022/04/22 08:07:37;;;;;;;8.10;3.40;;;15.60;55.00;;;;;;6087667;22;20045;-94
2022/04/22 08:10:04;;;;;;;11.57;4.00;;;15.90;55.30;;;;;;6088342;22;20013;-94
2022/04/22 08:12:30;;;;;;;5.70;3.30;;;15.60;54.70;;;;;;6064036;23;20028;-95
2022/04/22 08:14:58;;;;;;;6.93;3.67;;;15.70;55.00;;;;;;6062396;22;20010;-94
2022/04/22 08:17:23;;;;;;;6.72;3.40;;;15.70;54.90;;;;;;6063121;23;20021;-90
2022/04/22 08:19:49;;;;;;;9.77;3.70;;;15.40;54.70;;;;;;6086337;23;20101;-84
2022/04/22 08:22:15;;;;;;;8.70;3.20;;;15.70;54.30;;;;;;6109036;22;20453;-94
2022/04/22 08:24:41;;;;;;;5.28;3.22;;;15.70;54.60;;;;;;6086931;22;20020;-93
2022/04/22 08:27:07;;;;;;;6.10;3.55;;;15.80;54.50;;;;;;6060797;22;20037;-95
2022/04/22 08:29:33;;;;;;;8.25;3.88;;;15.90;54.20;;;;;;6086283;23;20006;-93
2022/04/22 08:31:59;;;;;;;12.05;3.42;;;15.90;54.10;;;;;;6085502;22;20020;-95
2022/04/22 08:34:24;;;;;;;5.50;3.35;;;15.90;54.10;;;;;;6065656;23;20013;-95
2022/04/22 08:36:50;;;;;;;6.07;3.33;;;16.00;54.30;;;;;;6088397;23;20014;-93
2022/04/22 08:39:16;;;;;;;5.65;3.72;;;16.10;54.60;;;;;;6062338;22;20006;-93
2022/04/22 08:41:42;;;;;;;6.38;3.42;;;16.10;54.30;;;;;;6084899;22;20014;-95
2022/04/22 08:44:12;;;;;;;6.20;4.05;;;16.10;54.20;;;;;;6062218;22;20010;-92
2022/04/22 08:52:11;;;;;;;6.00;3.67;;;16.30;53.20;;;;;;6088845;23;20020;-91
2022/04/22 08:54:41;;;;;;;6.25;3.80;;;16.40;53.50;;;;;;6063583;22;20006;-95
2022/04/22 08:57:07;;;;;;;10.27;3.55;;;16.40;53.40;;;;;;6062340;22;20089;-93
2022/04/22 08:59:33;;;;;;;8.10;3.58;;;16.40;53.50;;;;;;6064390;22;20280;-93
2022/04/22 09:01:59;;;;;;;7.28;3.95;;;16.50;53.50;;;;;;6086640;22;20093;-90
2022/04/22 09:04:26;;;;;;;7.55;3.67;;;16.50;53.00;;;;;;6063795;23;20010;-93
2022/04/22 09:06:52;;;;;;;6.82;3.70;;;16.60;52.70;;;;;;6083949;22;20097;-94
2022/04/22 09:09:19;;;;;;;30.77;6.72;;;16.70;52.60;;;;;;6085319;22;20037;-95
2022/04/22 09:11:45;;;;;;;6.50;3.78;;;16.70;52.20;;;;;;6061268;23;20089;-94
2022/04/22 09:14:19;;;;;;;7.88;3.83;;;16.70;51.80;;;;;;6087089;22;20021;-96
2022/04/22 09:16:45;;;;;;;4.70;3.38;;;16.80;51.50;;;;;;6084387;22;20041;-92
2022/04/22 09:19:11;;;;;;;3.72;2.33;;;16.90;51.30;;;;;;6060690;22;20009;-95
2022/04/22 09:21:38;;;;;;;7.38;3.75;;;16.90;51.30;;;;;;6084450;22;20453;-94
2022/04/22 09:24:14;;;;;;;5.13;3.30;;;17.00;50.60;;;;;;6087790;23;20082;-92
2022/04/22 09:26:40;;;;;;;13.00;4.40;;;17.00;50.50;;;;;;6079148;22;20062;-92
2022/04/22 09:29:06;;;;;;;5.65;3.30;;;17.00;50.40;;;;;;6067816;23;20018;-89
2022/04/22 09:31:53;;;;;;;9.55;4.10;;;17.10;50.60;;;;;;6061444;23;20022;-95
2022/04/22 09:34:41;;;;;;;6.00;4.18;;;17.10;50.30;;;;;;6062767;22;20087;-93
2022/04/22 09:42:52;;;;;;;7.45;3.35;;;17.30;49.80;;;;;;6090196;22;20048;-94
2022/04/22 09:45:18;;;;;;;5.53;3.55;;;17.30;48.80;;;;;;6061275;23;20006;-93
2022/04/22 09:47:57;;;;;;;4.70;2.75;;;17.30;48.80;;;;;;6059888;22;20014;-91
2022/04/22 09:50:42;;;;;;;5.63;2.92;;;17.40;48.50;;;;;;6089187;23;20013;-91
2022/04/22 09:53:14;;;;;;;6.88;3.20;;;17.40;48.30;;;;;;6108739;22;20354;-96
2022/04/22 09:55:53;;;;;;;6.38;3.03;;;17.50;48.50;;;;;;6063219;22;20040;-92
2022/04/22 09:58:23;;;;;;;5.78;2.70;;;17.60;48.40;;;;;;6085658;22;20112;-96
2022/04/22 10:01:03;;;;;;;5.32;3.10;;;17.60;48.30;;;;;;6088649;22;20014;-95
2022/04/22 10:03:37;;;;;;;4.53;2.55;;;17.70;48.30;;;;;;6098380;23;20014;-96
2022/04/22 10:06:05;;;;;;;5.40;3.43;;;17.70;48.10;;;;;;6063458;22;20013;-92
2022/04/22 10:08:36;;;;;;;6.05;3.53;;;17.80;47.80;;;;;;6087177;22;20641;-96
2022/04/22 10:11:06;;;;;;;5.18;3.03;;;17.80;47.60;;;;;;6086222;22;20009;-89
2022/04/22 10:13:43;;;;;;;5.32;2.35;;;17.90;46.90;;;;;;6083827;22;20009;-94
2022/04/22 10:16:10;;;;;;;4.22;2.15;;;18.00;47.00;;;;;;6110777;22;20347;-96
2022/04/22 10:18:38;;;;;;;4.82;2.67;;;18.00;46.80;;;;;;6065451;22;20405;-94
2022/04/22 10:21:04;;;;;;;9.35;2.83;;;18.00;46.60;;;;;;6084088;22;20013;-91
2022/04/22 10:23:31;;;;;;;6.47;3.05;;;18.10;47.40;;;;;;6061504;22;20021;-94
2022/04/22 10:25:59;;;;;;;7.50;3.00;;;18.20;46.80;;;;;;6083777;22;20080;-89
2022/04/22 10:28:28;;;;;;;6.47;3.15;;;18.20;46.00;;;;;;6061225;23;20060;-95
2022/04/22 10:31:00;;;;;;;4.85;2.35;;;18.20;46.00;;;;;;6085400;23;20075;-96
2022/04/22 10:33:27;;;;;;;8.20;2.95;;;18.30;46.80;;;;;;6107453;22;20018;-92
2022/04/22 10:36:05;;;;;;;7.10;2.38;;;18.50;46.30;;;;;;6085952;23;20014;-93
2022/04/22 10:38:38;;;;;;;7.82;4.68;;;18.40;45.90;;;;;;6058051;23;20524;-88
2022/04/22 10:41:17;;;;;;;7.85;3.67;;;18.40;45.60;;;;;;6082177;22;20275;-95
2022/04/22 10:47:15;;;;;;;4.93;2.80;;;18.50;45.40;;;;;;6090968;22;20476;-96
2022/04/22 10:49:45;;;;;;;11.07;5.30;;;18.60;45.80;;;;;;6073837;22;20033;-96
2022/04/22 10:52:22;;;;;;;9.82;2.78;;;18.60;45.60;;;;;;6085824;22;20021;-95
2022/04/22 10:54:58;;;;;;;6.93;2.63;;;18.70;45.40;;;;;;6065115;22;20291;-94
2022/04/22 10:57:31;;;;;;;4.68;2.00;;;18.70;44.90;;;;;;6111136;22;20030;-93
2022/04/22 11:00:09;;;;;;;4.40;2.20;;;18.80;45.00;;;;;;6088224;23;20357;-96
2022/04/22 11:02:40;;;;;;;5.20;2.25;;;18.80;44.70;;;;;;6109514;22;20111;-92
2022/04/22 11:05:20;;;;;;;7.65;2.70;;;18.90;45.00;;;;;;6089214;22;20521;-95
2022/04/22 11:07:58;;;;;;;4.70;2.40;;;18.90;44.50;;;;;;6109251;22;20022;-95
2022/04/22 11:10:46;;;;;;;6.35;3.08;;;19.00;44.70;;;;;;6112623;22;20002;-92
2022/04/22 11:13:32;;;;;;;4.97;2.92;;;19.00;44.20;;;;;;6112983;22;20089;-96
2022/04/22 11:16:05;;;;;;;9.27;3.20;;;19.00;44.30;;;;;;6114468;22;20039;-96
2022/04/22 11:18:31;;;;;;;4.30;2.53;;;19.10;44.40;;;;;;6159619;23;20050;-90
2022/04/22 11:21:05;;;;;;;4.57;2.58;;;19.10;44.30;;;;;;6014355;23;20010;-95
2022/04/22 11:23:41;;;;;;;11.02;3.30;;;19.10;44.80;;;;;;6038215;23;20105;-92
2022/04/22 11:26:15;;;;;;;5.07;2.25;;;19.20;44.60;;;;;;6018194;23;20014;-94
2022/04/22 11:28:42;;;;;;;6.80;3.38;;;19.20;44.50;;;;;;6051962;23;20013;-93
2022/04/22 11:31:11;;;;;;;10.15;3.72;;;19.30;44.30;;;;;;6052608;23;20001;-95
2022/04/22 11:33:57;;;;;;;4.78;2.28;;;19.30;44.40;;;;;;6042917;23;20070;-95
2022/04/22 11:36:25;;;;;;;4.45;2.08;;;19.30;44.40;;;;;;6039703;23;20006;-94
2022/04/22 11:38:53;;;;;;;5.25;2.35;;;19.40;44.40;;;;;;6039910;23;20018;-95
2022/04/22 11:41:20;;;;;;;7.53;2.35;;;19.50;44.20;;;;;;6059945;23;20010;-94
2022/04/22 11:43:46;;;;;;;5.93;2.72;;;19.60;43.90;;;;;;6037535;23;20022;-96
2022/04/22 11:46:16;;;;;;;4.32;2.50;;;19.60;43.60;;;;;;6037319;23;20015;-94
2022/04/22 11:48:46;;;;;;;4.72;2.50;;;19.70;43.60;;;;;;6036332;23;20006;-95
2022/04/22 11:51:14;;;;;;;4.00;2.63;;;19.70;43.60;;;;;;6057335;23;20089;-94
2022/04/22 11:53:49;;;;;;;5.10;2.60;;;19.80;43.40;;;;;;6033723;23;19999;-94
2022/04/22 11:56:23;;;;;;;3.72;2.38;;;19.80;43.10;;;;;;6034695;23;20014;-94
2022/04/22 11:58:56;;;;;;;5.68;2.88;;;19.80;42.90;;;;;;6063725;23;20064;-94
2022/04/22 12:07:02;;;;;;;5.70;2.67;;;20.00;43.00;;;;;;6091263;23;20071;-96
2022/04/22 12:09:28;;;;;;;4.80;2.47;;;20.00;42.60;;;;;;6087604;23;20010;-92
2022/04/22 12:11:58;;;;;;;3.60;2.50;;;20.00;43.10;;;;;;6087835;23;20040;-95
2022/04/22 12:14:25;;;;;;;115.22;9.90;;;20.00;43.50;;;;;;6066362;23;20039;-95
2022/04/22 12:16:59;;;;;;;3.78;2.55;;;20.10;42.90;;;;;;6086924;23;20472;-96
2022/04/22 12:19:28;;;;;;;6.30;2.30;;;20.10;42.90;;;;;;6066888;23;20016;-94
2022/04/22 12:21:55;;;;;;;11.27;3.00;;;20.20;43.30;;;;;;6090109;23;20021;-95
2022/04/22 12:24:23;;;;;;;6.32;2.92;;;20.20;42.30;;;;;;6087592;23;20021;-95
2022/04/22 12:26:51;;;;;;;3.70;2.13;;;20.20;42.50;;;;;;6088493;23;20488;-95
2022/04/22 12:29:21;;;;;;;3.70;1.75;;;20.20;42.80;;;;;;6066267;23;20016;-95
2022/04/22 12:31:50;;;;;;;3.78;1.80;;;20.30;42.70;;;;;;6065664;23;20022;-95
2022/04/22 12:34:36;;;;;;;5.22;2.33;;;20.40;42.70;;;;;;6089943;23;20002;-94
2022/04/22 12:37:06;;;;;;;4.28;2.42;;;20.50;42.40;;;;;;6089638;23;20014;-94
2022/04/22 12:39:39;;;;;;;4.22;2.33;;;20.50;42.10;;;;;;6089901;23;20018;-95
2022/04/22 12:42:29;;;;;;;3.63;2.38;;;20.60;42.10;;;;;;6111710;23;20028;-96
2022/04/22 12:53:41;;;;;;;7.07;2.25;;;20.70;42.30;;;;;;6091989;23;20025;-95
2022/04/22 12:56:09;;;;;;;5.10;2.45;;;20.70;42.30;;;;;;6087746;23;20010;-95
2022/04/22 12:58:57;;;;;;;8.10;2.92;;;20.80;42.20;;;;;;6059729;23;20025;-95
2022/04/22 13:01:35;;;;;;;5.18;2.83;;;20.80;41.80;;;;;;6060786;23;20014;-96
2022/04/22 13:04:01;;;;;;;4.05;2.10;;;20.70;41.90;;;;;;6061479;23;20070;-90
2022/04/22 13:06:42;;;;;;;4.07;2.20;;;20.80;42.20;;;;;;6059667;23;20042;-93
2022/04/22 13:09:14;;;;;;;4.20;2.80;;;20.80;42.20;;;;;;6059909;23;20037;-95
2022/04/22 13:11:40;;;;;;;3.45;1.88;;;20.80;41.60;;;;;;6059793;23;20395;-95
2022/04/22 13:14:07;;;;;;;3.90;2.20;;;20.80;41.70;;;;;;6062506;23;20013;-90
2022/04/22 13:16:33;;;;;;;4.60;2.35;;;20.90;41.80;;;;;;6059390;23;20017;-91
2022/04/22 13:19:00;;;;;;;6.53;2.05;;;20.90;41.80;;;;;;6057892;23;20036;-94
2022/04/22 13:21:26;;;;;;;5.93;2.15;;;20.90;41.90;;;;;;6058888;23;20006;-94
2022/04/22 13:23:52;;;;;;;3.42;2.08;;;20.90;41.70;;;;;;6058510;23;20041;-92
2022/04/22 13:26:19;;;;;;;8.43;2.22;;;21.00;42.00;;;;;;6058915;23;20446;-95
2022/04/22 13:28:45;;;;;;;5.40;1.88;;;21.00;41.70;;;;;;6060221;23;20064;-95
2022/04/22 13:31:12;;;;;;;3.08;1.80;;;21.00;41.80;;;;;;6059902;23;20028;-95
2022/04/22 13:33:38;;;;;;;5.82;2.20;;;21.00;41.90;;;;;;6058389;23;20088;-96
2022/04/22 13:36:04;;;;;;;3.28;2.10;;;21.00;41.40;;;;;;6060196;23;20010;-96
2022/04/22 13:38:32;;;;;;;5.72;2.00;;;21.00;40.80;;;;;;6034810;23;20025;-94
2022/04/22 13:41:00;;;;;;;3.90;2.10;;;20.80;40.90;;;;;;6037552;23;20070;-93
2022/04/22 13:43:30;;;;;;;3.10;1.75;;;21.00;40.60;;;;;;6062070;23;20026;-94
2022/04/22 13:54:19;;;;;;;5.82;1.90;;;21.00;40.80;;;;;;6084451;23;20013;-94
2022/04/22 13:56:45;;;;;;;3.78;1.80;;;21.00;41.20;;;;;;6066645;22;20044;-94
2022/04/22 13:59:11;;;;;;;3.67;1.98;;;21.00;41.50;;;;;;6093841;23;20345;-95
2022/04/22 14:01:37;;;;;;;2.85;1.70;;;21.00;41.50;;;;;;6219300;22;20005;-94
2022/04/22 14:04:03;;;;;;;3.85;1.40;;;21.00;41.20;;;;;;6220584;22;20016;-95
2022/04/22 14:06:29;;;;;;;3.97;2.00;;;21.10;40.90;;;;;;6221744;22;20009;-91
2022/04/22 14:08:55;;;;;;;3.13;1.90;;;20.90;41.10;;;;;;6221327;22;20059;-94